RYR5KA LIBD-LRBS
Flight info
| Callsign | RYR5KA |
|---|---|
| Flight time | N/A |
| Altitude | 37000 |
| Route | BANAV DCT AIOSA DCT VELIP DCT GIKUN DCT ABRUT |
| Aircraft | B738/M-SDE2E3FGHIRWXY/LB1 |
Departure
| Time | 2026-04-22 20:56 |
|---|---|
| Airport | Bari Karol Wojtyła International Airport (LIBD) |
Arrival
| Time | N/A |
|---|---|
| Airport | Bucharest Băneasa Aurel Vlaicu International Airport (LRBS) |
| Time | Latitude | Longitude | Altitude | Speed | Heading |
|---|---|---|---|---|---|
| 2026-04-22 20:26 | 41.13551 | 16.76395 | 147 ft | 0 kts | 160° |
| 2026-04-22 20:49 | 41.13555 | 16.76393 | 147 ft | 2 kts | 161° |
| 2026-04-22 20:49 | 41.13570 | 16.76386 | 147 ft | 2 kts | 161° |
| 2026-04-22 20:49 | 41.13586 | 16.76379 | 147 ft | 2 kts | 161° |
| 2026-04-22 20:49 | 41.13601 | 16.76372 | 146 ft | 2 kts | 143° |
| 2026-04-22 20:50 | 41.13610 | 16.76357 | 147 ft | 1 kts | 81° |
| 2026-04-22 20:50 | 41.13609 | 16.76350 | 147 ft | 0 kts | 72° |
| 2026-04-22 20:52 | 41.13610 | 16.76351 | 147 ft | 1 kts | 72° |
| 2026-04-22 20:52 | 41.13620 | 16.76397 | 145 ft | 10 kts | 72° |
| 2026-04-22 20:52 | 41.13654 | 16.76509 | 140 ft | 15 kts | 57° |
| 2026-04-22 20:53 | 41.13749 | 16.76555 | 138 ft | 15 kts | 1° |
| 2026-04-22 20:53 | 41.13826 | 16.76624 | 136 ft | 16 kts | 68° |
| 2026-04-22 20:53 | 41.13873 | 16.76793 | 125 ft | 23 kts | 70° |
| 2026-04-22 20:53 | 41.13933 | 16.77007 | 126 ft | 25 kts | 69° |
| 2026-04-22 20:54 | 41.13995 | 16.77227 | 123 ft | 25 kts | 69° |
| 2026-04-22 20:54 | 41.14044 | 16.77367 | 116 ft | 15 kts | 43° |
| 2026-04-22 20:54 | 41.14146 | 16.77417 | 115 ft | 15 kts | 7° |
| 2026-04-22 20:54 | 41.14215 | 16.77372 | 113 ft | 12 kts | 284° |
| 2026-04-22 20:55 | 41.14197 | 16.77271 | 113 ft | 11 kts | 249° |
| 2026-04-22 20:55 | 41.14158 | 16.77134 | 122 ft | 37 kts | 249° |
| 2026-04-22 20:55 | 41.13968 | 16.76462 | 138 ft | 116 kts | 249° |
| 2026-04-22 20:55 | 41.13605 | 16.75192 | 309 ft | 167 kts | 252° |
| 2026-04-22 20:56 | 41.13234 | 16.73685 | 1194 ft | 176 kts | 258° |
| 2026-04-22 20:56 | 41.12849 | 16.72089 | 2107 ft | 187 kts | 255° |
| 2026-04-22 20:56 | 41.12326 | 16.70405 | 2745 ft | 205 kts | 254° |
| 2026-04-22 20:56 | 41.11781 | 16.68603 | 3300 ft | 218 kts | 255° |
| 2026-04-22 20:57 | 41.11368 | 16.66667 | 3961 ft | 217 kts | 277° |
| 2026-04-22 20:57 | 41.11878 | 16.64888 | 4669 ft | 212 kts | 315° |
| 2026-04-22 20:57 | 41.13203 | 16.63890 | 4942 ft | 240 kts | 352° |
| 2026-04-22 20:57 | 41.14864 | 16.64290 | 5683 ft | 253 kts | 25° |
| 2026-04-22 20:58 | 41.16374 | 16.65562 | 6641 ft | 259 kts | 31° |
| 2026-04-22 20:58 | 41.17863 | 16.66966 | 7493 ft | 265 kts | 32° |
| 2026-04-22 20:58 | 41.19354 | 16.68405 | 8368 ft | 269 kts | 32° |
| 2026-04-22 20:58 | 41.20881 | 16.69884 | 9300 ft | 273 kts | 32° |
| 2026-04-22 20:59 | 41.22432 | 16.71384 | 10164 ft | 278 kts | 32° |
| 2026-04-22 20:59 | 41.24029 | 16.72921 | 10637 ft | 297 kts | 32° |
| 2026-04-22 20:59 | 41.25779 | 16.74599 | 10955 ft | 319 kts | 32° |
| 2026-04-22 20:59 | 41.27601 | 16.76355 | 11677 ft | 326 kts | 32° |
| 2026-04-22 21:00 | 41.29454 | 16.78144 | 12542 ft | 329 kts | 32° |
| 2026-04-22 21:00 | 41.31302 | 16.79926 | 13378 ft | 333 kts | 31° |
| 2026-04-22 21:00 | 41.33190 | 16.81746 | 14172 ft | 337 kts | 31° |
| 2026-04-22 21:00 | 41.35112 | 16.83596 | 14870 ft | 343 kts | 30° |
| 2026-04-22 21:01 | 41.37071 | 16.85464 | 15560 ft | 347 kts | 27° |
| 2026-04-22 21:01 | 41.39161 | 16.86995 | 16250 ft | 345 kts | 17° |
| 2026-04-22 21:01 | 41.41417 | 16.88108 | 17005 ft | 346 kts | 13° |
| 2026-04-22 21:01 | 41.43710 | 16.89164 | 17719 ft | 350 kts | 12° |
| 2026-04-22 21:02 | 41.46011 | 16.90231 | 18428 ft | 354 kts | 12° |
| 2026-04-22 21:02 | 41.48353 | 16.91339 | 19044 ft | 358 kts | 12° |
| 2026-04-22 21:02 | 41.50716 | 16.92471 | 19683 ft | 362 kts | 11° |
| 2026-04-22 21:02 | 41.53099 | 16.93607 | 20301 ft | 364 kts | 9° |
| 2026-04-22 21:03 | 41.55521 | 16.94599 | 20929 ft | 364 kts | 6° |
| 2026-04-22 21:03 | 41.57983 | 16.95511 | 21551 ft | 367 kts | 5° |
| 2026-04-22 21:03 | 41.60425 | 16.96398 | 22159 ft | 370 kts | 5° |
| 2026-04-22 21:03 | 41.62924 | 16.97318 | 22752 ft | 374 kts | 5° |
| 2026-04-22 21:04 | 41.65457 | 16.98267 | 23355 ft | 377 kts | 5° |
| 2026-04-22 21:04 | 41.68005 | 16.99232 | 23879 ft | 381 kts | 5° |
| 2026-04-22 21:04 | 41.70565 | 17.00257 | 24371 ft | 389 kts | 9° |
| 2026-04-22 21:04 | 41.73056 | 17.01799 | 24864 ft | 403 kts | 18° |
| 2026-04-22 21:05 | 41.75436 | 17.03933 | 25352 ft | 419 kts | 28° |
| 2026-04-22 21:05 | 41.77666 | 17.06512 | 25793 ft | 427 kts | 31° |
| 2026-04-22 21:05 | 41.79856 | 17.09182 | 26188 ft | 432 kts | 31° |
| 2026-04-22 21:05 | 41.82084 | 17.11919 | 26604 ft | 435 kts | 31° |
| 2026-04-22 21:06 | 41.84345 | 17.14671 | 27022 ft | 438 kts | 30° |
| 2026-04-22 21:06 | 41.86606 | 17.17394 | 27431 ft | 441 kts | 30° |
| 2026-04-22 21:06 | 41.88904 | 17.20142 | 27828 ft | 444 kts | 30° |
| 2026-04-22 21:06 | 41.91232 | 17.22918 | 28218 ft | 447 kts | 30° |
| 2026-04-22 21:07 | 41.93557 | 17.25760 | 28596 ft | 454 kts | 32° |
| 2026-04-22 21:07 | 41.95799 | 17.28759 | 28971 ft | 461 kts | 34° |
| 2026-04-22 21:07 | 41.98025 | 17.31874 | 29331 ft | 465 kts | 34° |
| 2026-04-22 21:07 | 42.00264 | 17.35067 | 29676 ft | 469 kts | 35° |
| 2026-04-22 21:08 | 42.02510 | 17.38284 | 30018 ft | 472 kts | 35° |
| 2026-04-22 21:08 | 42.04742 | 17.41475 | 30314 ft | 475 kts | 35° |
| 2026-04-22 21:08 | 42.07021 | 17.44723 | 30648 ft | 476 kts | 35° |
| 2026-04-22 21:08 | 42.09307 | 17.47970 | 31019 ft | 476 kts | 36° |
| 2026-04-22 21:09 | 42.11582 | 17.51198 | 31473 ft | 474 kts | 36° |
| 2026-04-22 21:09 | 42.13843 | 17.54404 | 31982 ft | 470 kts | 36° |
| 2026-04-22 21:09 | 42.15845 | 17.57242 | 32415 ft | 467 kts | 36° |
| 2026-04-22 21:09 | 42.18105 | 17.60444 | 32837 ft | 466 kts | 37° |
| 2026-04-22 21:10 | 42.20393 | 17.63684 | 33218 ft | 466 kts | 37° |
| 2026-04-22 21:10 | 42.22636 | 17.66863 | 33623 ft | 464 kts | 37° |
| 2026-04-22 21:10 | 42.24861 | 17.70022 | 34038 ft | 463 kts | 37° |
| 2026-04-22 21:10 | 42.27075 | 17.73171 | 34366 ft | 462 kts | 38° |
| 2026-04-22 21:11 | 42.29288 | 17.76320 | 34669 ft | 461 kts | 38° |
| 2026-04-22 21:11 | 42.31486 | 17.79452 | 34990 ft | 460 kts | 38° |
| 2026-04-22 21:11 | 42.33644 | 17.82532 | 35301 ft | 458 kts | 39° |
| 2026-04-22 21:11 | 42.35826 | 17.85649 | 35621 ft | 457 kts | 39° |
| 2026-04-22 21:12 | 42.38021 | 17.88789 | 35927 ft | 456 kts | 39° |
| 2026-04-22 21:12 | 42.40168 | 17.91863 | 36230 ft | 454 kts | 39° |
| 2026-04-22 21:12 | 42.42355 | 17.94997 | 36542 ft | 453 kts | 40° |
| 2026-04-22 21:12 | 42.44512 | 17.98091 | 36838 ft | 452 kts | 40° |
| 2026-04-22 21:13 | 42.46682 | 18.01208 | 37084 ft | 452 kts | 40° |
| 2026-04-22 21:13 | 42.48855 | 18.04327 | 37055 ft | 456 kts | 40° |
| 2026-04-22 21:13 | 42.53208 | 18.10593 | 37067 ft | 456 kts | 40° |
| 2026-04-22 21:14 | 42.57499 | 18.16795 | 37069 ft | 448 kts | 40° |
| 2026-04-22 21:14 | 42.61765 | 18.22967 | 37084 ft | 447 kts | 40° |
| 2026-04-22 21:15 | 42.66010 | 18.29117 | 37085 ft | 447 kts | 40° |
| 2026-04-22 21:15 | 42.70242 | 18.35261 | 37088 ft | 447 kts | 41° |
| 2026-04-22 21:16 | 42.74505 | 18.41466 | 37084 ft | 448 kts | 41° |
| 2026-04-22 21:16 | 42.78042 | 18.46625 | 37089 ft | 448 kts | 41° |
| 2026-04-22 21:17 | 42.82345 | 18.52914 | 37106 ft | 449 kts | 41° |
| 2026-04-22 21:17 | 42.86568 | 18.59098 | 37111 ft | 451 kts | 41° |
| 2026-04-22 21:18 | 42.90821 | 18.65342 | 37119 ft | 451 kts | 41° |
| 2026-04-22 21:18 | 42.95087 | 18.71618 | 37137 ft | 451 kts | 41° |
| 2026-04-22 21:19 | 42.99356 | 18.77911 | 37145 ft | 453 kts | 42° |
| 2026-04-22 21:19 | 43.03601 | 18.84185 | 37147 ft | 453 kts | 42° |
| 2026-04-22 21:20 | 43.07887 | 18.90532 | 37159 ft | 453 kts | 42° |
| 2026-04-22 21:20 | 43.12134 | 18.96835 | 37174 ft | 452 kts | 42° |
| 2026-04-22 21:21 | 43.16375 | 19.03144 | 37183 ft | 451 kts | 42° |
| 2026-04-22 21:21 | 43.20599 | 19.09441 | 37192 ft | 450 kts | 42° |
| 2026-04-22 21:22 | 43.24819 | 19.15744 | 37188 ft | 448 kts | 43° |
| 2026-04-22 21:22 | 43.29029 | 19.22050 | 37182 ft | 447 kts | 43° |
| 2026-04-22 21:23 | 43.33207 | 19.28318 | 37194 ft | 446 kts | 43° |
| 2026-04-22 21:23 | 43.37375 | 19.34587 | 37195 ft | 444 kts | 43° |
| 2026-04-22 21:24 | 43.41577 | 19.40919 | 37199 ft | 443 kts | 43° |
| 2026-04-22 21:24 | 43.45718 | 19.47172 | 37201 ft | 443 kts | 43° |
| 2026-04-22 21:25 | 43.49858 | 19.53439 | 37203 ft | 443 kts | 43° |
| 2026-04-22 21:25 | 43.53975 | 19.59686 | 37197 ft | 443 kts | 43° |
| 2026-04-22 21:26 | 43.58069 | 19.65909 | 37199 ft | 443 kts | 43° |
| 2026-04-22 21:26 | 43.62212 | 19.72223 | 37199 ft | 443 kts | 43° |
| 2026-04-22 21:27 | 43.66324 | 19.78502 | 37200 ft | 444 kts | 44° |
| 2026-04-22 21:27 | 43.70474 | 19.84854 | 37203 ft | 444 kts | 44° |
| 2026-04-22 21:28 | 43.74602 | 19.91186 | 37188 ft | 445 kts | 44° |
| 2026-04-22 21:28 | 43.78751 | 19.97565 | 37178 ft | 446 kts | 44° |
| 2026-04-22 21:29 | 43.82908 | 20.03971 | 37185 ft | 446 kts | 44° |
| 2026-04-22 21:29 | 43.87017 | 20.10317 | 37181 ft | 446 kts | 44° |
| 2026-04-22 21:30 | 43.91163 | 20.16733 | 37166 ft | 446 kts | 44° |
| 2026-04-22 21:30 | 43.95278 | 20.23118 | 37165 ft | 446 kts | 44° |
| 2026-04-22 21:31 | 43.99412 | 20.29545 | 37168 ft | 445 kts | 44° |
| 2026-04-22 21:31 | 44.03499 | 20.35915 | 37169 ft | 444 kts | 45° |
| 2026-04-22 21:32 | 44.07598 | 20.42316 | 37165 ft | 444 kts | 45° |
| 2026-04-22 21:32 | 44.11675 | 20.48699 | 37167 ft | 443 kts | 45° |
| 2026-04-22 21:33 | 44.15743 | 20.55080 | 37166 ft | 442 kts | 45° |
| 2026-04-22 21:33 | 44.19830 | 20.61507 | 37159 ft | 442 kts | 45° |
| 2026-04-22 21:34 | 44.23910 | 20.67936 | 37161 ft | 441 kts | 45° |
| 2026-04-22 21:34 | 44.27969 | 20.74349 | 37151 ft | 441 kts | 45° |
| 2026-04-22 21:35 | 44.32017 | 20.80757 | 37146 ft | 440 kts | 45° |
| 2026-04-22 21:35 | 44.36044 | 20.87147 | 37149 ft | 440 kts | 45° |
| 2026-04-22 21:36 | 44.40095 | 20.93590 | 37143 ft | 439 kts | 46° |
| 2026-04-22 21:36 | 44.44097 | 20.99969 | 37145 ft | 439 kts | 46° |
| 2026-04-22 21:37 | 44.48133 | 21.06416 | 37141 ft | 439 kts | 46° |
| 2026-04-22 21:37 | 44.52139 | 21.12831 | 37139 ft | 439 kts | 46° |
| 2026-04-22 21:38 | 44.56146 | 21.19262 | 37139 ft | 438 kts | 46° |
| 2026-04-22 21:38 | 44.60222 | 21.25819 | 37138 ft | 438 kts | 46° |
| 2026-04-22 21:39 | 44.64215 | 21.32258 | 37138 ft | 438 kts | 46° |
| 2026-04-22 21:39 | 44.68211 | 21.38716 | 37135 ft | 438 kts | 46° |
| 2026-04-22 21:40 | 44.72230 | 21.45225 | 37142 ft | 438 kts | 46° |
| 2026-04-22 21:40 | 44.75878 | 21.52063 | 37128 ft | 443 kts | 64° |
| 2026-04-22 21:41 | 44.76846 | 21.56192 | 37134 ft | 446 kts | 77° |
| 2026-04-22 21:41 | 44.77066 | 21.60613 | 37140 ft | 449 kts | 91° |
| 2026-04-22 21:41 | 44.76668 | 21.69355 | 37145 ft | 450 kts | 92° |
| 2026-04-22 21:42 | 44.76297 | 21.76685 | 37144 ft | 450 kts | 92° |
| 2026-04-22 21:42 | 44.75824 | 21.86938 | 37139 ft | 451 kts | 91° |
| 2026-04-22 21:43 | 44.75442 | 21.95786 | 37130 ft | 451 kts | 91° |
| 2026-04-22 21:43 | 44.75125 | 22.03143 | 37142 ft | 452 kts | 91° |
| 2026-04-22 21:44 | 44.74741 | 22.11928 | 37142 ft | 452 kts | 91° |
| 2026-04-22 21:44 | 44.74344 | 22.20816 | 37148 ft | 453 kts | 91° |
| 2026-04-22 21:45 | 44.73943 | 22.29613 | 37139 ft | 453 kts | 92° |
| 2026-04-22 21:45 | 44.73533 | 22.38465 | 37134 ft | 454 kts | 92° |
| 2026-04-22 21:46 | 44.73117 | 22.47298 | 37134 ft | 454 kts | 92° |
| 2026-04-22 21:46 | 44.72693 | 22.56145 | 37132 ft | 454 kts | 92° |
| 2026-04-22 21:47 | 44.72264 | 22.64966 | 37129 ft | 448 kts | 92° |
| 2026-04-22 21:47 | 44.72050 | 22.69271 | 37109 ft | 434 kts | 92° |
| 2026-04-22 21:47 | 44.71843 | 22.73408 | 37111 ft | 420 kts | 92° |
| 2026-04-22 21:48 | 44.71640 | 22.77455 | 37112 ft | 407 kts | 92° |
| 2026-04-22 21:48 | 44.71444 | 22.81325 | 37088 ft | 395 kts | 92° |
| 2026-04-22 21:48 | 44.71249 | 22.85183 | 36586 ft | 396 kts | 92° |
| 2026-04-22 21:48 | 44.71052 | 22.89109 | 35695 ft | 408 kts | 92° |
| 2026-04-22 21:49 | 44.70846 | 22.93191 | 34687 ft | 425 kts | 92° |
| 2026-04-22 21:49 | 44.70634 | 22.97327 | 34190 ft | 426 kts | 92° |
| 2026-04-22 21:49 | 44.70417 | 23.01464 | 33903 ft | 419 kts | 92° |
| 2026-04-22 21:49 | 44.70205 | 23.05488 | 33626 ft | 413 kts | 92° |
| 2026-04-22 21:50 | 44.69991 | 23.09514 | 33276 ft | 408 kts | 92° |
| 2026-04-22 21:50 | 44.69780 | 23.13475 | 32893 ft | 405 kts | 92° |
| 2026-04-22 21:50 | 44.69572 | 23.17365 | 32546 ft | 401 kts | 92° |
| 2026-04-22 21:50 | 44.69362 | 23.21263 | 32203 ft | 397 kts | 92° |
| 2026-04-22 21:51 | 44.69152 | 23.25134 | 31879 ft | 392 kts | 92° |
| 2026-04-22 21:51 | 44.68947 | 23.28897 | 31553 ft | 389 kts | 92° |
| 2026-04-22 21:51 | 44.68740 | 23.32683 | 31217 ft | 385 kts | 92° |
| 2026-04-22 21:52 | 44.68328 | 23.40124 | 30579 ft | 377 kts | 92° |
| 2026-04-22 21:52 | 44.68126 | 23.43748 | 30270 ft | 374 kts | 92° |
| 2026-04-22 21:52 | 44.67923 | 23.47365 | 29901 ft | 370 kts | 92° |
| 2026-04-22 21:52 | 44.67720 | 23.50963 | 29482 ft | 367 kts | 92° |
| 2026-04-22 21:53 | 44.67514 | 23.54618 | 29002 ft | 366 kts | 92° |
| 2026-04-22 21:53 | 44.67313 | 23.58147 | 28553 ft | 364 kts | 93° |
| 2026-04-22 21:53 | 44.67111 | 23.61674 | 28135 ft | 362 kts | 92° |
| 2026-04-22 21:53 | 44.66845 | 23.65193 | 27681 ft | 361 kts | 96° |
| 2026-04-22 21:54 | 44.66426 | 23.68658 | 27221 ft | 361 kts | 99° |
| 2026-04-22 21:54 | 44.65945 | 23.72106 | 26836 ft | 358 kts | 99° |
| 2026-04-22 21:54 | 44.65450 | 23.75534 | 26454 ft | 356 kts | 99° |
| 2026-04-22 21:54 | 44.64949 | 23.79022 | 26075 ft | 353 kts | 99° |
| 2026-04-22 21:55 | 44.64474 | 23.82366 | 25722 ft | 350 kts | 99° |
| 2026-04-22 21:55 | 44.64001 | 23.85727 | 25365 ft | 348 kts | 99° |
| 2026-04-22 21:55 | 44.63543 | 23.89014 | 25019 ft | 346 kts | 99° |
| 2026-04-22 21:55 | 44.63082 | 23.92338 | 24664 ft | 344 kts | 99° |
| 2026-04-22 21:56 | 44.62626 | 23.95635 | 24319 ft | 342 kts | 99° |
| 2026-04-22 21:56 | 44.62177 | 23.98875 | 23969 ft | 340 kts | 99° |
| 2026-04-22 21:56 | 44.61724 | 24.02146 | 23605 ft | 339 kts | 99° |
| 2026-04-22 21:56 | 44.61279 | 24.05352 | 23202 ft | 337 kts | 99° |
| 2026-04-22 21:57 | 44.60829 | 24.08590 | 22827 ft | 335 kts | 99° |
| 2026-04-22 21:57 | 44.60383 | 24.11792 | 22486 ft | 332 kts | 99° |
| 2026-04-22 21:57 | 44.59942 | 24.14951 | 22128 ft | 330 kts | 99° |
| 2026-04-22 21:57 | 44.59502 | 24.18097 | 21778 ft | 327 kts | 99° |
| 2026-04-22 21:58 | 44.59063 | 24.21224 | 21435 ft | 325 kts | 99° |
| 2026-04-22 21:58 | 44.58632 | 24.24295 | 21102 ft | 323 kts | 99° |
| 2026-04-22 21:58 | 44.58198 | 24.27382 | 20762 ft | 321 kts | 99° |
| 2026-04-22 21:58 | 44.57766 | 24.30440 | 20437 ft | 319 kts | 99° |
| 2026-04-22 21:59 | 44.57330 | 24.33527 | 20102 ft | 318 kts | 99° |
| 2026-04-22 21:59 | 44.56904 | 24.36537 | 19775 ft | 317 kts | 99° |
| 2026-04-22 21:59 | 44.56474 | 24.39563 | 19453 ft | 316 kts | 99° |
| 2026-04-22 21:59 | 44.56045 | 24.42581 | 19130 ft | 315 kts | 99° |
| 2026-04-22 22:00 | 44.55616 | 24.45595 | 18801 ft | 314 kts | 99° |
| 2026-04-22 22:00 | 44.55190 | 24.48581 | 18478 ft | 313 kts | 99° |
| 2026-04-22 22:00 | 44.54764 | 24.51556 | 18113 ft | 313 kts | 99° |
| 2026-04-22 22:00 | 44.54334 | 24.54554 | 17755 ft | 312 kts | 99° |
| 2026-04-22 22:01 | 44.53908 | 24.57525 | 17417 ft | 310 kts | 99° |
| 2026-04-22 22:01 | 44.53481 | 24.60489 | 17075 ft | 309 kts | 99° |
| 2026-04-22 22:01 | 44.53061 | 24.63400 | 16756 ft | 307 kts | 99° |
| 2026-04-22 22:01 | 44.52637 | 24.66338 | 16441 ft | 306 kts | 99° |
| 2026-04-22 22:02 | 44.52213 | 24.69264 | 16118 ft | 304 kts | 99° |
| 2026-04-22 22:02 | 44.51793 | 24.72161 | 15805 ft | 303 kts | 99° |
| 2026-04-22 22:02 | 44.51373 | 24.75057 | 15482 ft | 302 kts | 99° |
| 2026-04-22 22:02 | 44.50956 | 24.77918 | 15177 ft | 301 kts | 99° |
| 2026-04-22 22:03 | 44.50538 | 24.80786 | 14852 ft | 300 kts | 99° |
| 2026-04-22 22:03 | 44.50119 | 24.83656 | 14536 ft | 299 kts | 99° |
| 2026-04-22 22:03 | 44.49707 | 24.86475 | 14227 ft | 298 kts | 99° |
| 2026-04-22 22:03 | 44.49287 | 24.89340 | 13913 ft | 298 kts | 99° |
| 2026-04-22 22:04 | 44.48872 | 24.92164 | 13555 ft | 297 kts | 99° |
| 2026-04-22 22:04 | 44.48455 | 24.95000 | 13221 ft | 296 kts | 99° |
| 2026-04-22 22:04 | 44.48042 | 24.97799 | 12897 ft | 295 kts | 99° |
| 2026-04-22 22:04 | 44.47627 | 25.00609 | 12572 ft | 293 kts | 99° |
| 2026-04-22 22:05 | 44.47216 | 25.03391 | 12268 ft | 292 kts | 99° |
| 2026-04-22 22:05 | 44.46804 | 25.06169 | 11952 ft | 290 kts | 99° |
| 2026-04-22 22:05 | 44.46393 | 25.08946 | 11637 ft | 289 kts | 99° |
| 2026-04-22 22:05 | 44.45984 | 25.11700 | 11340 ft | 288 kts | 99° |
| 2026-04-22 22:06 | 44.45578 | 25.14424 | 11033 ft | 287 kts | 99° |
| 2026-04-22 22:06 | 44.45169 | 25.17163 | 10728 ft | 286 kts | 99° |
| 2026-04-22 22:06 | 44.44631 | 25.19836 | 10339 ft | 289 kts | 110° |
| 2026-04-22 22:06 | 44.43825 | 25.22401 | 10154 ft | 284 kts | 114° |
| 2026-04-22 22:07 | 44.42978 | 25.24885 | 9817 ft | 284 kts | 114° |
| 2026-04-22 22:07 | 44.42131 | 25.27368 | 9513 ft | 282 kts | 114° |
| 2026-04-22 22:07 | 44.41294 | 25.29860 | 9214 ft | 281 kts | 113° |
| 2026-04-22 22:07 | 44.40471 | 25.32340 | 8926 ft | 279 kts | 113° |
| 2026-04-22 22:08 | 44.39672 | 25.34773 | 8642 ft | 277 kts | 113° |
| 2026-04-22 22:08 | 44.38870 | 25.37225 | 8355 ft | 275 kts | 112° |
| 2026-04-22 22:08 | 44.38082 | 25.39646 | 8075 ft | 273 kts | 112° |
| 2026-04-22 22:08 | 44.37305 | 25.42031 | 7802 ft | 271 kts | 112° |
| 2026-04-22 22:09 | 44.36521 | 25.44435 | 7529 ft | 269 kts | 112° |
| 2026-04-22 22:09 | 44.35746 | 25.46812 | 7255 ft | 267 kts | 112° |
| 2026-04-22 22:09 | 44.35079 | 25.49174 | 6963 ft | 263 kts | 98° |
| 2026-04-22 22:09 | 44.35157 | 25.51664 | 6757 ft | 254 kts | 72° |
| 2026-04-22 22:10 | 44.35817 | 25.53954 | 6437 ft | 253 kts | 63° |
| 2026-04-22 22:10 | 44.36567 | 25.56156 | 6146 ft | 252 kts | 63° |
| 2026-04-22 22:10 | 44.37321 | 25.58358 | 6038 ft | 251 kts | 63° |
| 2026-04-22 22:10 | 44.38071 | 25.60562 | 5998 ft | 250 kts | 63° |
| 2026-04-22 22:11 | 44.38797 | 25.62715 | 5983 ft | 237 kts | 63° |
| 2026-04-22 22:11 | 44.39472 | 25.64734 | 5985 ft | 225 kts | 63° |
| 2026-04-22 22:11 | 44.40025 | 25.66391 | 5982 ft | 214 kts | 63° |
| 2026-04-22 22:12 | 44.40642 | 25.68243 | 5926 ft | 208 kts | 63° |
| 2026-04-22 22:12 | 44.41047 | 25.69461 | 5726 ft | 210 kts | 63° |
| 2026-04-22 22:12 | 44.41882 | 25.71952 | 5347 ft | 212 kts | 63° |
| 2026-04-22 22:12 | 44.42298 | 25.73192 | 5197 ft | 211 kts | 63° |
| 2026-04-22 22:13 | 44.42924 | 25.75058 | 4958 ft | 211 kts | 64° |
| 2026-04-22 22:13 | 44.43466 | 25.76940 | 4729 ft | 210 kts | 69° |
| 2026-04-22 22:13 | 44.43909 | 25.78863 | 4696 ft | 205 kts | 71° |
| 2026-04-22 22:13 | 44.44322 | 25.80831 | 4425 ft | 213 kts | 72° |
| 2026-04-22 22:14 | 44.44724 | 25.82806 | 4158 ft | 212 kts | 73° |
| 2026-04-22 22:14 | 44.45127 | 25.84793 | 3858 ft | 209 kts | 73° |
| 2026-04-22 22:14 | 44.45520 | 25.86730 | 3578 ft | 207 kts | 73° |
| 2026-04-22 22:14 | 44.45911 | 25.88653 | 3297 ft | 203 kts | 73° |
| 2026-04-22 22:15 | 44.46198 | 25.90065 | 3086 ft | 201 kts | 73° |
| 2026-04-22 22:15 | 44.46470 | 25.91403 | 2891 ft | 199 kts | 74° |
| 2026-04-22 22:15 | 44.46555 | 25.91820 | 2841 ft | 198 kts | 74° |
| 2026-04-22 22:16 | 44.46673 | 25.92395 | 2746 ft | 198 kts | 74° |